Time;durP1;ratioP1;P1;durP2;ratioP2;P2;SDS_P1;SDS_P2;PMS_P1;PMS_P2;Temp;Humidity;BMP_temperature;BMP_pressure;BME280_temperature;BME280_humidity;BME280_pressure;Samples;Min_cycle;Max_cycle;Signal;HPM_P1;HPM_P2
2023/09/22 00:01:01;;;;;;;;;;;;;;;16.24;100.00;99742.63;4934508;29;863;-60
2023/09/22 00:03:28;;;;;;;;;;;;;;;16.25;100.00;99738.59;4934539;29;842;-60
2023/09/22 00:05:55;;;;;;;;;;;;;;;16.20;100.00;99753.09;4934543;29;966;-60
2023/09/22 00:08:22;;;;;;;;;;;;;;;16.08;100.00;99772.13;4934436;29;853;-60
2023/09/22 00:10:49;;;;;;;;;;;;;;;16.00;100.00;99767.97;4934429;29;1978;-60
2023/09/22 00:13:16;;;;;;;;;;;;;;;15.96;100.00;99780.44;4930712;29;1287;-60
2023/09/22 00:15:44;;;;;;;;;;;;;;;15.92;100.00;99781.31;4915437;29;896;-60
2023/09/22 00:18:11;;;;;;;;;;;;;;;15.89;100.00;99787.75;4915489;29;876;-60
2023/09/22 00:20:39;;;;;;;;;;;;;;;15.84;100.00;99784.75;4915306;29;946;-60
2023/09/22 00:23:06;;;;;;;;;;;;;;;15.77;100.00;99782.94;4915487;29;869;-60
2023/09/22 00:25:33;;;;;;;;;;;;;;;15.70;100.00;99783.88;4915271;29;885;-60
2023/09/22 00:28:00;;;;;;;;;;;;;;;15.65;100.00;99784.38;4915257;29;857;-60
2023/09/22 00:30:28;;;;;;;;;;;;;;;15.59;100.00;99774.22;4915380;29;853;-60
2023/09/22 00:32:55;;;;;;;;;;;;;;;15.53;100.00;99776.72;4915258;29;1914;-60
2023/09/22 00:35:22;;;;;;;;;;;;;;;15.50;100.00;99775.63;4917464;29;877;-59
2023/09/22 00:37:50;;;;;;;;;;;;;;;15.51;100.00;99777.19;4918862;29;845;-60
2023/09/22 00:40:16;;;;;;;;;;;;;;;15.53;100.00;99776.72;4919096;29;920;-60
2023/09/22 00:42:43;;;;;;;;;;;;;;;15.56;100.00;99778.66;4918741;29;864;-60
2023/09/22 00:45:10;;;;;;;;;;;;;;;15.60;100.00;99775.78;4917487;29;1309;-60
2023/09/22 00:47:37;;;;;;;;;;;;;;;15.64;100.00;99779.25;4918705;29;892;-60
2023/09/22 00:50:09;;;;;;;;;;;;;;;15.68;100.00;99779.94;4918652;29;883;-60
2023/09/22 00:52:36;;;;;;;;;;;;;;;15.73;100.00;99779.44;4918614;29;1958;-60
2023/09/22 00:55:02;;;;;;;;;;;;;;;15.77;100.00;99773.75;4918653;29;854;-60
2023/09/22 00:57:29;;;;;;;;;;;;;;;15.70;100.00;99772.72;4918564;29;900;-60
2023/09/22 00:59:56;;;;;;;;;;;;;;;15.63;100.00;99767.31;4918776;29;817;-60
2023/09/22 01:02:25;;;;;;;;;;;;;;;15.56;100.00;99769.53;4918489;29;813;-60
2023/09/22 01:04:52;;;;;;;;;;;;;;;15.50;100.00;99767.25;4918320;29;806;-60
2023/09/22 01:07:19;;;;;;;;;;;;;;;15.44;100.00;99757.88;4918402;29;896;-60
2023/09/22 01:09:46;;;;;;;;;;;;;;;15.45;100.00;99764.25;4918310;29;837;-60
2023/09/22 01:12:13;;;;;;;;;;;;;;;15.45;100.00;99765.00;4918114;29;1890;-60
2023/09/22 01:14:40;;;;;;;;;;;;;;;15.46;100.00;99760.22;4932684;29;1468;-60
2023/09/22 01:17:07;;;;;;;;;;;;;;;15.45;100.00;99758.66;4937095;29;885;-60
2023/09/22 01:19:35;;;;;;;;;;;;;;;15.48;100.00;99752.22;4937127;29;802;-60
2023/09/22 01:22:04;;;;;;;;;;;;;;;15.48;100.00;99749.44;4937266;29;849;-60
2023/09/22 01:24:30;;;;;;;;;;;;;;;15.50;100.00;99749.78;4936936;29;894;-60
2023/09/22 01:26:58;;;;;;;;;;;;;;;15.47;100.00;99747.88;4936976;29;852;-60
2023/09/22 01:29:25;;;;;;;;;;;;;;;15.47;100.00;99745.88;4937041;29;865;-60
2023/09/22 01:31:53;;;;;;;;;;;;;;;15.46;100.00;99738.72;4936703;29;1915;-61
2023/09/22 01:34:20;;;;;;;;;;;;;;;15.47;100.00;99737.50;4936878;29;822;-60
2023/09/22 01:36:47;;;;;;;;;;;;;;;15.49;100.00;99742.63;4936709;29;865;-60
2023/09/22 01:39:16;;;;;;;;;;;;;;;15.49;100.00;99745.41;4937065;29;861;-60
2023/09/22 01:41:43;;;;;;;;;;;;;;;15.50;100.00;99741.41;4936744;29;868;-60
2023/09/22 01:44:14;;;;;;;;;;;;;;;15.49;100.00;99737.84;4935337;29;884;-60
2023/09/22 01:46:40;;;;;;;;;;;;;;;15.45;100.00;99748.31;4936827;29;835;-60
2023/09/22 01:49:07;;;;;;;;;;;;;;;15.42;100.00;99754.72;4936818;29;830;-60
2023/09/22 01:51:37;;;;;;;;;;;;;;;15.42;100.00;99748.38;4936773;29;1954;-60
2023/09/22 01:54:05;;;;;;;;;;;;;;;15.43;100.00;99759.09;4936371;29;840;-60
2023/09/22 01:56:32;;;;;;;;;;;;;;;15.47;100.00;99754.22;4936289;29;829;-60
2023/09/22 01:58:59;;;;;;;;;;;;;;;15.47;100.00;99748.66;4936545;29;960;-61
2023/09/22 02:01:26;;;;;;;;;;;;;;;15.42;100.00;99760.31;4936596;29;844;-60
2023/09/22 02:03:52;;;;;;;;;;;;;;;15.38;100.00;99751.25;4936321;29;904;-60
2023/09/22 02:06:19;;;;;;;;;;;;;;;15.31;100.00;99749.44;4934925;29;1310;-60
2023/09/22 02:08:46;;;;;;;;;;;;;;;15.28;100.00;99749.53;4936185;29;892;-60
2023/09/22 02:11:12;;;;;;;;;;;;;;;15.24;100.00;99755.19;4936149;29;1907;-60
2023/09/22 02:13:40;;;;;;;;;;;;;;;15.24;100.00;99751.63;4935922;29;1227;-61
2023/09/22 02:16:07;;;;;;;;;;;;;;;15.27;100.00;99757.09;4934870;29;1190;-60
2023/09/22 02:18:35;;;;;;;;;;;;;;;15.26;100.00;99763.13;4936025;29;881;-60
2023/09/22 02:21:02;;;;;;;;;;;;;;;15.25;100.00;99765.09;4936037;29;873;-60
2023/09/22 02:23:29;;;;;;;;;;;;;;;15.24;100.00;99771.13;4935892;29;868;-60
2023/09/22 02:25:56;;;;;;;;;;;;;;;15.27;100.00;99768.22;4935764;29;837;-60
2023/09/22 02:28:23;;;;;;;;;;;;;;;15.33;100.00;99771.28;4935920;29;864;-60
2023/09/22 02:30:50;;;;;;;;;;;;;;;15.31;100.00;99765.38;4935814;29;900;-60
2023/09/22 02:33:17;;;;;;;;;;;;;;;15.28;100.00;99766.25;4936097;29;1903;-60
2023/09/22 02:35:44;;;;;;;;;;;;;;;15.27;100.00;99765.44;4935536;29;880;-60
2023/09/22 02:38:11;;;;;;;;;;;;;;;15.24;100.00;99774.69;4935788;29;869;-60
2023/09/22 02:40:37;;;;;;;;;;;;;;;15.24;100.00;99774.69;4935855;29;857;-60
2023/09/22 02:43:06;;;;;;;;;;;;;;;15.22;100.00;99776.34;4935592;29;896;-60
2023/09/22 02:45:36;;;;;;;;;;;;;;;15.14;100.00;99770.16;4935955;29;841;-60
2023/09/22 02:48:04;;;;;;;;;;;;;;;15.10;100.00;99766.66;4935358;29;964;-60
2023/09/22 02:50:31;;;;;;;;;;;;;;;15.03;100.00;99766.84;4934189;29;1166;-60
2023/09/22 02:52:58;;;;;;;;;;;;;;;14.97;100.00;99771.34;4935366;29;1950;-60
2023/09/22 02:55:25;;;;;;;;;;;;;;;14.89;100.00;99785.44;4935373;29;860;-60
2023/09/22 02:57:54;;;;;;;;;;;;;;;14.82;100.00;99782.03;4934750;29;837;-60
2023/09/22 03:00:21;;;;;;;;;;;;;;;14.78;100.00;99779.31;4935324;29;829;-60
2023/09/22 03:02:48;;;;;;;;;;;;;;;14.76;100.00;99781.75;4933983;29;1182;-60
2023/09/22 03:05:16;;;;;;;;;;;;;;;14.76;100.00;99778.19;4933912;29;835;-60
2023/09/22 03:07:43;;;;;;;;;;;;;;;14.74;100.00;99775.06;4935163;29;823;-60
2023/09/22 03:10:13;;;;;;;;;;;;;;;14.76;100.00;99778.19;4935092;29;829;-60
2023/09/22 03:12:40;;;;;;;;;;;;;;;14.79;100.00;99778.13;4935095;29;1887;-60
2023/09/22 03:15:09;;;;;;;;;;;;;;;14.86;100.00;99768.81;4934959;29;1216;-60
2023/09/22 03:17:36;;;;;;;;;;;;;;;14.89;100.00;99779.06;4933724;29;1356;-60
2023/09/22 03:20:06;;;;;;;;;;;;;;;14.90;100.00;99764.75;4934989;29;841;-60
2023/09/22 03:22:35;;;;;;;;;;;;;;;14.91;100.00;99773.88;4934973;29;1363;-60
2023/09/22 03:25:02;;;;;;;;;;;;;;;14.97;100.00;99771.34;4935056;29;835;-60
2023/09/22 03:27:35;;;;;;;;;;;;;;;15.00;100.00;99756.56;4935127;29;888;-60
2023/09/22 03:30:06;;;;;;;;;;;;;;;15.03;100.00;99764.06;4934773;29;849;-60
2023/09/22 03:32:33;;;;;;;;;;;;;;;15.07;100.00;99767.53;4934683;29;1965;-60
2023/09/22 03:35:00;;;;;;;;;;;;;;;15.15;100.00;99765.34;4934756;29;857;-60
2023/09/22 03:37:29;;;;;;;;;;;;;;;15.25;100.00;99775.44;4934785;29;901;-60
2023/09/22 03:39:56;;;;;;;;;;;;;;;15.36;100.00;99772.41;4934621;29;837;-60
2023/09/22 03:42:24;;;;;;;;;;;;;;;15.45;100.00;99772.59;4934749;29;887;-60
2023/09/22 03:44:52;;;;;;;;;;;;;;;15.53;100.00;99765.59;4934710;29;821;-61
2023/09/22 03:47:19;;;;;;;;;;;;;;;15.55;100.00;99754.03;4934600;29;843;-60
2023/09/22 03:49:45;;;;;;;;;;;;;;;15.51;100.00;99756.91;4934651;29;872;-60
2023/09/22 03:52:14;;;;;;;;;;;;;;;15.45;100.00;99758.66;4934396;29;1911;-60
2023/09/22 03:54:41;;;;;;;;;;;;;;;15.36;100.00;99758.47;4934886;29;801;-60
2023/09/22 03:57:08;;;;;;;;;;;;;;;15.24;100.00;99757.97;4934261;29;877;-60
2023/09/22 03:59:35;;;;;;;;;;;;;;;15.18;100.00;99767.28;4934472;29;802;-60
2023/09/22 04:02:02;;;;;;;;;;;;;;;15.11;100.00;99768.25;4934517;29;831;-60
2023/09/22 04:04:29;;;;;;;;;;;;;;;15.05;100.00;99773.53;4934468;29;892;-60
2023/09/22 04:06:58;;;;;;;;;;;;;;;15.02;100.00;99777.19;4934432;29;845;-60
2023/09/22 04:09:25;;;;;;;;;;;;;;;15.00;100.00;99782.41;4935165;29;861;-60
2023/09/22 04:11:52;;;;;;;;;;;;;;;15.02;100.00;99795.88;4938297;29;1887;-60
2023/09/22 04:14:20;;;;;;;;;;;;;;;15.08;100.00;99808.06;4937988;29;1323;-60
2023/09/22 04:16:47;;;;;;;;;;;;;;;15.14;100.00;99814.69;4938399;29;1234;-60
2023/09/22 04:19:15;;;;;;;;;;;;;;;15.22;100.00;99804.97;4938227;29;851;-60
2023/09/22 04:21:44;;;;;;;;;;;;;;;15.33;100.00;99813.06;4938421;29;901;-60
2023/09/22 04:24:12;;;;;;;;;;;;;;;15.47;100.00;99818.28;4938212;29;810;-60
2023/09/22 04:26:44;;;;;;;;;;;;;;;15.58;100.00;99818.00;4938176;29;837;-61
2023/09/22 04:29:11;;;;;;;;;;;;;;;15.66;100.00;99824.16;4938059;29;892;-60
2023/09/22 04:31:38;;;;;;;;;;;;;;;15.71;100.00;99812.50;4937981;29;1968;-60
2023/09/22 04:34:05;;;;;;;;;;;;;;;15.77;100.00;99819.16;4936666;29;1205;-60
2023/09/22 04:36:32;;;;;;;;;;;;;;;15.82;100.00;99813.03;4937979;29;825;-60
2023/09/22 04:39:00;;;;;;;;;;;;;;;15.91;100.00;99815.19;4937821;29;829;-60
2023/09/22 04:41:26;;;;;;;;;;;;;;;16.03;100.00;99825.63;4937957;29;896;-60
2023/09/22 04:43:55;;;;;;;;;;;;;;;16.17;100.00;99821.66;4936416;29;1317;-60
2023/09/22 04:46:22;;;;;;;;;;;;;;;16.33;100.00;99823.63;4937770;29;873;-60
2023/09/22 04:48:49;;;;;;;;;;;;;;;16.48;100.00;99819.19;4937635;29;852;-60
2023/09/22 04:51:16;;;;;;;;;;;;;;;16.52;100.00;99803.13;4937570;29;1943;-60
2023/09/22 04:53:43;;;;;;;;;;;;;;;16.61;100.00;99799.69;4937538;29;905;-60
2023/09/22 04:56:09;;;;;;;;;;;;;;;16.76;100.00;99799.28;4937551;29;857;-60
2023/09/22 04:58:40;;;;;;;;;;;;;;;16.89;100.00;99792.50;4937555;29;869;-60
2023/09/22 05:01:05;;;;;;;;;;;;;;;17.15;100.00;99800.84;4937344;29;869;-60
2023/09/22 05:03:34;;;;;;;;;;;;;;;17.43;100.00;99793.59;4937463;29;893;-60
2023/09/22 05:06:09;;;;;;;;;;;;;;;17.62;100.00;99788.94;4937267;29;869;-60
2023/09/22 05:08:37;;;;;;;;;;;;;;;17.71;100.00;99788.25;4937463;29;1202;-60
2023/09/22 05:11:08;;;;;;;;;;;;;;;17.81;100.00;99789.13;4937317;29;1968;-60
2023/09/22 05:13:35;;;;;;;;;;;;;;;17.88;100.00;99800.88;4937201;29;1194;-59
2023/09/22 05:16:06;;;;;;;;;;;;;;;17.94;100.00;99801.06;4937116;29;818;-60
2023/09/22 05:18:34;;;;;;;;;;;;;;;17.99;100.00;99810.88;4937170;29;1431;-60
2023/09/22 05:21:02;;;;;;;;;;;;;;;18.03;100.00;99803.94;4936655;29;845;-60
2023/09/22 05:23:32;;;;;;;;;;;;;;;18.06;100.00;99805.81;4935791;29;1305;-60
2023/09/22 05:26:00;;;;;;;;;;;;;;;18.15;100.00;99807.91;4936981;29;845;-60
2023/09/22 05:28:27;;;;;;;;;;;;;;;18.28;100.00;99805.03;4937006;29;884;-59
2023/09/22 05:30:53;;;;;;;;;;;;;;;18.49;100.00;99798.66;4936934;29;881;-59
2023/09/22 05:33:20;;;;;;;;;;;;;;;18.70;100.00;99799.09;4936904;29;1906;-59
2023/09/22 05:35:47;;;;;;;;;;;;;;;18.90;100.00;99807.13;4937110;29;849;-60
2023/09/22 05:38:14;;;;;;;;;;;;;;;19.16;100.00;99816.91;4937078;29;818;-59
2023/09/22 05:40:41;;;;;;;;;;;;;;;19.45;100.00;99821.34;4936778;29;876;-59
2023/09/22 05:43:12;;;;;;;;;;;;;;;19.65;100.00;99817.34;4936767;29;851;-60
2023/09/22 05:45:39;;;;;;;;;;;;;;;19.81;100.00;99830.34;4936712;29;813;-59
2023/09/22 05:48:07;;;;;;;;;;;;;;;19.97;100.00;99830.00;4936395;29;841;-59
2023/09/22 05:50:37;;;;;;;;;;;;;;;20.24;100.00;99828.47;4936632;29;837;-59
2023/09/22 05:53:04;;;;;;;;;;;;;;;20.53;100.00;99833.59;4936755;29;1890;-59
2023/09/22 05:55:33;;;;;;;;;;;;;;;20.70;100.00;99837.63;4937274;29;853;-59
2023/09/22 05:58:00;;;;;;;;;;;;;;;20.89;100.00;99832.75;4936567;29;833;-60
2023/09/22 06:00:31;;;;;;;;;;;;;;;21.13;100.00;99827.19;4936376;29;892;-59
2023/09/22 06:02:57;;;;;;;;;;;;;;;21.23;100.00;99838.38;4936384;29;867;-60
2023/09/22 06:05:27;;;;;;;;;;;;;;;21.21;100.00;99842.47;4936279;29;852;-60
2023/09/22 06:07:55;;;;;;;;;;;;;;;21.32;100.00;99836.31;4936497;29;880;-59
2023/09/22 06:10:23;;;;;;;;;;;;;;;21.45;100.00;99849.41;4934943;29;1288;-59
2023/09/22 06:12:49;;;;;;;;;;;;;;;21.45;100.00;99857.84;4936479;29;1890;-59
2023/09/22 06:15:16;;;;;;;;;;;;;;;21.32;100.00;99867.25;4936151;29;854;-60
2023/09/22 06:17:43;;;;;;;;;;;;;;;21.28;100.00;99857.44;4936110;29;837;-59
2023/09/22 06:20:15;;;;;;;;;;;;;;;21.42;100.00;99842.69;4935985;29;810;-59
2023/09/22 06:22:47;;;;;;;;;;;;;;;21.65;100.00;99851.63;4936000;29;833;-59
2023/09/22 06:25:14;;;;;;;;;;;;;;;21.91;100.00;99857.53;4935903;29;833;-59
2023/09/22 06:27:41;;;;;;;;;;;;;;;22.21;100.00;99869.66;4935717;29;853;-59
2023/09/22 06:30:11;;;;;;;;;;;;;;;22.77;100.00;99864.34;4935753;29;908;-59
2023/09/22 06:32:42;;;;;;;;;;;;;;;23.15;100.00;99873.97;4935131;29;1922;-59
2023/09/22 06:35:09;;;;;;;;;;;;;;;23.35;100.00;99859.94;4935593;29;896;-59
2023/09/22 06:37:37;;;;;;;;;;;;;;;23.73;100.00;99865.88;4935804;29;845;-59
2023/09/22 06:40:11;;;;;;;;;;;;;;;23.86;100.00;99868.38;4935719;29;809;-58
2023/09/22 07:13:42;;;;;;;;;;;;;;;27.69;89.13;99878.97;5377847;23;1694;-70
2023/09/22 07:16:10;;;;;;;;;;;;;;;27.90;87.32;99883.06;4993041;28;901;-70
2023/09/22 07:18:37;;;;;;;;;;;;;;;28.13;85.73;99885.81;4992808;28;883;-70
2023/09/22 07:21:06;;;;;;;;;;;;;;;28.57;84.84;99892.63;4992633;28;876;-70
2023/09/22 07:23:33;;;;;;;;;;;;;;;28.66;82.00;99888.69;4992815;28;860;-73
2023/09/22 07:26:01;;;;;;;;;;;;;;;28.44;82.35;99895.22;4992735;28;848;-70
2023/09/22 07:28:29;;;;;;;;;;;;;;;28.34;81.47;99900.47;4993072;28;849;-70
2023/09/22 07:30:56;;;;;;;;;;;;;;;28.19;82.31;99900.78;4992726;28;1394;-70
2023/09/22 07:33:29;;;;;;;;;;;;;;;28.31;81.86;99892.97;4992509;28;1979;-70
2023/09/22 07:38:58;;;;;;;;;;;;;;;27.56;85.14;99895.78;4992379;28;694;-70
2023/09/22 07:41:24;;;;;;;;;;;;;;;27.19;85.98;99888.31;4992625;28;860;-70
2023/09/22 07:43:52;;;;;;;;;;;;;;;27.00;86.25;99886.00;4992385;28;852;-69
2023/09/22 07:46:19;;;;;;;;;;;;;;;27.23;86.56;99886.81;4992664;28;1249;-70
2023/09/22 07:48:46;;;;;;;;;;;;;;;27.18;86.20;99878.25;4992464;28;1305;-70
2023/09/22 07:51:12;;;;;;;;;;;;;;;26.73;86.77;99881.06;4992397;28;1882;-70
2023/09/22 07:53:40;;;;;;;;;;;;;;;26.39;88.96;99883.81;4992249;28;871;-70
2023/09/22 07:56:07;;;;;;;;;;;;;;;26.84;89.55;99887.53;4992127;28;865;-71
2023/09/22 07:58:33;;;;;;;;;;;;;;;28.00;85.99;99879.94;4992298;28;1206;-74
2023/09/22 08:00:59;;;;;;;;;;;;;;;28.14;84.34;99881.69;4992303;28;981;-73
2023/09/22 08:03:26;;;;;;;;;;;;;;;28.13;83.85;99888.66;4992429;28;879;-74
2023/09/22 08:05:53;;;;;;;;;;;;;;;27.94;83.85;99882.03;4992306;28;914;-73
2023/09/22 08:08:19;;;;;;;;;;;;;;;27.25;85.77;99878.56;4974822;28;1169;-71
2023/09/22 08:10:45;;;;;;;;;;;;;;;26.86;88.91;99870.78;4992367;28;848;-71
2023/09/22 08:13:13;;;;;;;;;;;;;;;26.86;88.86;99867.97;4991667;28;1949;-70
2023/09/22 08:15:40;;;;;;;;;;;;;;;26.80;85.39;99867.19;4991396;28;891;-72
2023/09/22 08:27:52;;;;;;;;;;;;;;;26.80;83.84;99866.38;4990867;28;646;-71
2023/09/22 08:30:38;;;;;;;;;;;;;;;26.79;82.21;99859.94;4950152;29;1019;-68
2023/09/22 08:33:05;;;;;;;;;;;;;;;26.65;82.72;99852.44;4950410;29;1914;-71
2023/09/22 08:35:31;;;;;;;;;;;;;;;26.58;82.77;99852.97;4950412;29;895;-71
2023/09/22 08:38:00;;;;;;;;;;;;;;;26.44;82.88;99851.91;4950320;29;862;-71
2023/09/22 08:40:28;;;;;;;;;;;;;;;26.68;82.52;99849.38;4950399;29;869;-72
2023/09/22 08:42:55;;;;;;;;;;;;;;;27.54;78.89;99853.72;4934252;29;837;-72
2023/09/22 08:45:22;;;;;;;;;;;;;;;27.87;78.00;99850.03;4950219;29;1300;-70
2023/09/22 08:47:49;;;;;;;;;;;;;;;27.88;77.90;99851.56;4950317;29;826;-71
2023/09/22 08:50:16;;;;;;;;;;;;;;;28.31;78.06;99844.66;4950188;29;872;-70
2023/09/22 08:52:46;;;;;;;;;;;;;;;28.81;76.09;99846.44;4950185;29;1894;-70
2023/09/22 08:55:16;;;;;;;;;;;;;;;29.04;74.12;99841.31;4950660;28;864;-69
2023/09/22 08:57:44;;;;;;;;;;;;;;;29.20;73.50;99847.41;4953582;29;1306;-70
2023/09/22 09:00:33;;;;;;;;;;;;;;;29.39;73.10;99847.50;4953626;29;899;-70
2023/09/22 09:03:06;;;;;;;;;;;;;;;29.48;72.84;99841.44;4953763;29;848;-72
2023/09/22 09:05:33;;;;;;;;;;;;;;;29.31;72.65;99833.84;4953345;29;875;-70
2023/09/22 09:08:15;;;;;;;;;;;;;;;29.33;73.36;99833.31;4972996;28;860;-74
2023/09/22 09:10:43;;;;;;;;;;;;;;;28.99;74.05;99835.66;4994163;28;804;-73
2023/09/22 09:13:15;;;;;;;;;;;;;;;28.76;73.68;99833.00;4876752;28;3408134;-70
2023/09/22 09:15:47;;;;;;;;;;;;;;;28.69;74.75;99825.81;4995201;28;839;-71
2023/09/22 09:18:16;;;;;;;;;;;;;;;28.95;73.85;99835.19;4995442;28;902;-73
2023/09/22 09:20:43;;;;;;;;;;;;;;;28.72;73.55;99829.69;4995145;28;869;-69
2023/09/22 09:23:15;;;;;;;;;;;;;;;28.88;74.84;99828.00;4995146;28;867;-69
2023/09/22 09:25:54;;;;;;;;;;;;;;;29.23;74.17;99820.72;4995047;28;804;-68
2023/09/22 09:28:22;;;;;;;;;;;;;;;29.21;74.16;99829.81;4995075;28;895;-68
2023/09/22 09:30:55;;;;;;;;;;;;;;;29.22;73.88;99831.34;4994918;28;828;-68
2023/09/22 09:33:22;;;;;;;;;;;;;;;29.03;73.91;99819.84;4995050;28;1989;-69
2023/09/22 09:35:50;;;;;;;;;;;;;;;28.90;74.83;99825.41;4994843;28;832;-69
2023/09/22 09:38:17;;;;;;;;;;;;;;;29.18;74.34;99828.03;4994707;28;879;-68
2023/09/22 09:40:44;;;;;;;;;;;;;;;29.43;72.79;99819.50;4994776;28;812;-68
2023/09/22 09:43:12;;;;;;;;;;;;;;;29.67;71.13;99821.56;4977206;28;1435;-68
2023/09/22 09:45:43;;;;;;;;;;;;;;;29.78;71.51;99824.28;4994553;28;892;-70
2023/09/22 09:48:16;;;;;;;;;;;;;;;29.71;71.51;99816.34;4994955;28;840;-69
2023/09/22 09:50:47;;;;;;;;;;;;;;;29.79;70.59;99811.59;4994468;28;883;-69
2023/09/22 09:53:31;;;;;;;;;;;;;;;30.08;70.23;99800.59;4994473;28;1961;-69
2023/09/22 09:56:03;;;;;;;;;;;;;;;29.92;70.84;99796.69;4994335;28;859;-69
2023/09/22 09:58:37;;;;;;;;;;;;;;;29.91;71.67;99793.06;4994361;28;962;-68
2023/09/22 10:01:07;;;;;;;;;;;;;;;30.32;70.75;99799.75;4994559;28;1260;-69
2023/09/22 10:03:36;;;;;;;;;;;;;;;30.28;69.58;99787.88;4994269;28;865;-68
2023/09/22 10:06:04;;;;;;;;;;;;;;;30.16;69.52;99790.13;4993922;28;951;-68
2023/09/22 10:08:31;;;;;;;;;;;;;;;30.09;67.31;99787.91;4993047;28;891;-69
2023/09/22 10:10:59;;;;;;;;;;;;;;;30.12;66.34;99783.97;4994059;28;828;-69
2023/09/22 10:13:29;;;;;;;;;;;;;;;30.22;65.68;99790.03;4993861;28;1882;-70
2023/09/22 10:15:59;;;;;;;;;;;;;;;30.28;65.63;99785.03;4994069;28;834;-68
2023/09/22 10:18:45;;;;;;;;;;;;;;;30.18;64.44;99781.03;4993970;28;817;-69
2023/09/22 10:21:33;;;;;;;;;;;;;;;30.52;63.59;99767.06;4994048;28;840;-69
2023/09/22 10:24:15;;;;;;;;;;;;;;;30.65;62.45;99774.88;4993735;28;1292;-70
2023/09/22 10:27:08;;;;;;;;;;;;;;;30.97;61.67;99771.25;4993829;28;832;-69
2023/09/22 10:29:35;;;;;;;;;;;;;;;31.21;60.64;99762.47;4989714;28;1160;-69
2023/09/22 10:32:16;;;;;;;;;;;;;;;31.53;60.38;99761.63;4993755;28;1983;-68
2023/09/22 10:34:55;;;;;;;;;;;;;;;31.65;60.04;99762.94;4993778;28;891;-69
2023/09/22 10:37:26;;;;;;;;;;;;;;;31.83;59.74;99743.34;4993621;28;880;-69
2023/09/22 10:39:55;;;;;;;;;;;;;;;32.05;58.50;99754.31;4993361;28;884;-68
2023/09/22 10:42:24;;;;;;;;;;;;;;;31.93;57.37;99753.00;4993678;28;1202;-69
2023/09/22 10:44:58;;;;;;;;;;;;;;;31.87;55.60;99752.34;4993531;28;911;-66
2023/09/22 10:47:27;;;;;;;;;;;;;;;31.95;55.16;99751.09;4993425;28;813;-66
2023/09/22 10:49:54;;;;;;;;;;;;;;;31.76;55.77;99753.34;4993295;28;884;-67
2023/09/22 10:52:21;;;;;;;;;;;;;;;31.73;55.73;99748.75;4993284;28;1941;-69
2023/09/22 10:54:48;;;;;;;;;;;;;;;31.89;54.61;99744.75;4993378;28;907;-68
2023/09/22 11:00:18;;;;;;;;;;;;;;;32.31;52.70;99739.13;4992548;28;959;-68
2023/09/22 11:02:45;;;;;;;;;;;;;;;32.30;52.23;99740.44;4993239;28;851;-66
2023/09/22 11:05:12;;;;;;;;;;;;;;;32.61;51.63;99731.44;4993151;28;875;-68
2023/09/22 11:07:41;;;;;;;;;;;;;;;32.90;50.40;99724.41;4993090;28;848;-67
2023/09/22 11:10:10;;;;;;;;;;;;;;;33.06;50.24;99722.41;4993016;28;921;-68
2023/09/22 11:12:37;;;;;;;;;;;;;;;33.11;49.07;99724.34;4992981;28;1890;-67
2023/09/22 11:15:03;;;;;;;;;;;;;;;33.25;46.00;99718.53;4992826;28;1500;-69
2023/09/22 11:17:41;;;;;;;;;;;;;;;33.31;45.80;99719.16;4992958;28;860;-69
2023/09/22 11:20:16;;;;;;;;;;;;;;;33.44;45.11;99709.66;4992634;28;848;-67
2023/09/22 11:22:43;;;;;;;;;;;;;;;33.68;43.06;99714.94;4975379;28;799;-68
2023/09/22 11:25:11;;;;;;;;;;;;;;;33.91;42.61;99712.16;4975337;28;884;-69
2023/09/22 11:27:43;;;;;;;;;;;;;;;34.05;40.75;99704.13;4992776;28;879;-67
2023/09/22 11:30:14;;;;;;;;;;;;;;;34.05;40.12;99707.00;4992644;28;848;-68
2023/09/22 11:44:37;;;;;;;;;;;;;;;34.61;37.53;99704.44;4992531;28;675;-68
2023/09/22 11:47:03;;;;;;;;;;;;;;;34.83;37.69;99702.13;4992421;28;908;-68
2023/09/22 11:49:36;;;;;;;;;;;;;;;34.80;36.69;99706.91;4992472;28;879;-68
2023/09/22 11:52:03;;;;;;;;;;;;;;;35.07;36.46;99689.25;4992815;28;1907;-68
2023/09/22 11:54:31;;;;;;;;;;;;;;;35.00;36.30;99687.94;4992851;28;876;-68
2023/09/22 11:56:58;;;;;;;;;;;;;;;34.97;35.96;99689.09;4992338;28;894;-68
2023/09/22 11:59:27;;;;;;;;;;;;;;;35.08;36.07;99685.81;4992320;28;903;-69
2023/09/22 12:01:54;;;;;;;;;;;;;;;35.24;35.40;99682.94;4992258;28;1957;-69
2023/09/22 12:04:24;;;;;;;;;;;;;;;34.91;35.30;99686.44;4992324;28;871;-68
2023/09/22 12:06:51;;;;;;;;;;;;;;;34.95;35.65;99678.19;4992335;28;870;-68
2023/09/22 12:09:18;;;;;;;;;;;;;;;35.15;35.69;99679.31;4992457;28;875;-68
2023/09/22 12:11:45;;;;;;;;;;;;;;;34.93;36.32;99680.88;4992371;28;841;-67
2023/09/22 12:14:12;;;;;;;;;;;;;;;34.86;37.38;99680.88;4992071;28;1404;-67
2023/09/22 12:16:39;;;;;;;;;;;;;;;34.83;37.35;99682.03;4992242;28;857;-67
2023/09/22 12:19:06;;;;;;;;;;;;;;;34.69;37.26;99675.75;4992611;28;876;-66
2023/09/22 12:21:33;;;;;;;;;;;;;;;34.64;37.46;99683.22;4992066;28;1918;-67
2023/09/22 12:24:00;;;;;;;;;;;;;;;34.70;37.29;99675.16;4992216;28;817;-68
2023/09/22 12:26:27;;;;;;;;;;;;;;;34.91;36.98;99666.34;4992141;28;892;-68
2023/09/22 12:28:54;;;;;;;;;;;;;;;34.82;37.39;99663.28;4974640;28;1407;-68
2023/09/22 12:31:21;;;;;;;;;;;;;;;34.90;37.68;99670.53;4994619;28;849;-69
2023/09/22 12:33:48;;;;;;;;;;;;;;;34.88;37.72;99678.19;4995954;28;894;-68
2023/09/22 12:36:16;;;;;;;;;;;;;;;34.72;37.56;99672.50;4995857;28;892;-67
2023/09/22 12:38:42;;;;;;;;;;;;;;;34.59;38.66;99681.28;4995708;28;853;-68
2023/09/22 12:41:10;;;;;;;;;;;;;;;34.49;38.78;99675.34;4995842;28;834;-68
2023/09/22 12:43:37;;;;;;;;;;;;;;;34.41;39.78;99677.44;4978208;28;1943;-68
2023/09/22 12:46:08;;;;;;;;;;;;;;;34.14;39.74;99677.81;4995832;28;868;-68
2023/09/22 12:48:37;;;;;;;;;;;;;;;33.74;40.03;99675.41;4995628;28;867;-69
2023/09/22 12:51:04;;;;;;;;;;;;;;;33.38;40.42;99672.59;4995721;28;835;-65
2023/09/22 12:53:31;;;;;;;;;;;;;;;33.09;40.81;99675.50;4995625;28;926;-68
2023/09/22 12:55:58;;;;;;;;;;;;;;;32.90;41.28;99669.25;4995513;28;889;-67
2023/09/22 12:58:26;;;;;;;;;;;;;;;32.82;41.65;99669.22;4995839;28;809;-68
2023/09/22 13:00:53;;;;;;;;;;;;;;;32.88;42.31;99672.69;4995389;28;933;-67
2023/09/22 13:03:20;;;;;;;;;;;;;;;32.82;42.02;99672.06;4995403;28;1887;-65
2023/09/22 13:05:47;;;;;;;;;;;;;;;32.86;41.41;99663.09;4995295;28;1037;-68
2023/09/22 13:08:15;;;;;;;;;;;;;;;32.96;41.75;99664.13;4995340;28;888;-69
2023/09/22 13:10:41;;;;;;;;;;;;;;;32.98;41.11;99666.44;4995192;28;856;-68
2023/09/22 13:13:08;;;;;;;;;;;;;;;33.19;41.27;99655.69;4995172;28;1268;-68
2023/09/22 13:15:35;;;;;;;;;;;;;;;33.31;41.42;99648.31;4995155;28;840;-68
2023/09/22 13:18:03;;;;;;;;;;;;;;;33.26;40.91;99654.19;4995130;28;920;-67
2023/09/22 13:20:33;;;;;;;;;;;;;;;33.01;41.36;99656.72;4995029;28;891;-68
2023/09/22 13:23:01;;;;;;;;;;;;;;;33.11;42.31;99661.38;4994998;28;1970;-69
2023/09/22 13:25:29;;;;;;;;;;;;;;;33.17;40.68;99657.59;4994943;28;848;-68
2023/09/22 13:27:55;;;;;;;;;;;;;;;33.21;40.71;99655.16;4995138;28;810;-68
2023/09/22 13:30:22;;;;;;;;;;;;;;;33.15;40.62;99656.06;4995383;28;802;-66
2023/09/22 13:32:50;;;;;;;;;;;;;;;33.38;41.44;99660.38;4994959;28;1200;-69
2023/09/22 13:35:17;;;;;;;;;;;;;;;33.37;40.73;99648.13;4995019;28;1276;-68
2023/09/22 13:37:43;;;;;;;;;;;;;;;33.32;40.86;99646.22;4994812;28;980;-68
